PDA6110 UKWW-LIRI
Flight info
| Callsign | PDA6110 |
|---|---|
| Flight time | 2h 15m |
| Altitude | 36000 |
| Route | TAKET DCT GEMTO/N0453F360 DCT KARIL DCT VEBAL DCT AGLIB/N0453F370 DCT DIXUM DCT AIOSA DCT TOPNO |
| Aircraft | A320/M-VD/A |
Departure
| Time | 2026-04-22 12:49 |
|---|---|
| Airport | Vinnytsia/Gavyryshivka International Airport (UKWW) |
Arrival
| Time | 2026-04-22 15:05 |
|---|---|
| Airport | Salerno Costa d'Amalfi Airport (LIRI) |
| Time | Latitude | Longitude | Altitude | Speed | Heading |
|---|---|---|---|---|---|
| 2026-04-22 12:29 | 49.24370 | 28.60652 | 977 ft | 0 kts | 229° |
| 2026-04-22 12:44 | 49.24362 | 28.60640 | 984 ft | 3 kts | 224° |
| 2026-04-22 12:45 | 49.24334 | 28.60620 | 972 ft | 3 kts | 168° |
| 2026-04-22 12:45 | 49.24308 | 28.60660 | 976 ft | 7 kts | 132° |
| 2026-04-22 12:45 | 49.24309 | 28.60738 | 981 ft | 9 kts | 50° |
| 2026-04-22 12:45 | 49.24343 | 28.60793 | 976 ft | 12 kts | 47° |
| 2026-04-22 12:46 | 49.24406 | 28.60900 | 976 ft | 16 kts | 49° |
| 2026-04-22 12:46 | 49.24472 | 28.61047 | 974 ft | 18 kts | 92° |
| 2026-04-22 12:46 | 49.24390 | 28.61196 | 977 ft | 20 kts | 138° |
| 2026-04-22 12:46 | 49.24282 | 28.61346 | 983 ft | 23 kts | 137° |
| 2026-04-22 12:47 | 49.24155 | 28.61517 | 972 ft | 26 kts | 139° |
| 2026-04-22 12:47 | 49.24010 | 28.61720 | 966 ft | 30 kts | 138° |
| 2026-04-22 12:47 | 49.23845 | 28.61940 | 979 ft | 33 kts | 139° |
| 2026-04-22 12:47 | 49.23673 | 28.62173 | 977 ft | 33 kts | 138° |
| 2026-04-22 12:48 | 49.23524 | 28.62374 | 969 ft | 24 kts | 140° |
| 2026-04-22 12:48 | 49.23443 | 28.62467 | 968 ft | 6 kts | 97° |
| 2026-04-22 12:48 | 49.23453 | 28.62466 | 968 ft | 1 kts | 319° |
| 2026-04-22 12:48 | 49.23523 | 28.62373 | 980 ft | 42 kts | 318° |
| 2026-04-22 12:49 | 49.23911 | 28.61844 | 969 ft | 105 kts | 318° |
| 2026-04-22 12:49 | 49.24580 | 28.60935 | 993 ft | 150 kts | 319° |
| 2026-04-22 12:49 | 49.25368 | 28.59865 | 1607 ft | 147 kts | 321° |
| 2026-04-22 12:49 | 49.26187 | 28.58853 | 2073 ft | 164 kts | 322° |
| 2026-04-22 12:50 | 49.27144 | 28.57659 | 2294 ft | 190 kts | 322° |
| 2026-04-22 12:50 | 49.28273 | 28.56404 | 2619 ft | 212 kts | 338° |
| 2026-04-22 12:50 | 49.29801 | 28.56300 | 3014 ft | 238 kts | 18° |
| 2026-04-22 12:50 | 49.31143 | 28.57888 | 3654 ft | 256 kts | 55° |
| 2026-04-22 12:51 | 49.31618 | 28.60548 | 4476 ft | 268 kts | 92° |
| 2026-04-22 12:51 | 49.30999 | 28.63252 | 5317 ft | 277 kts | 126° |
| 2026-04-22 12:51 | 49.29469 | 28.65038 | 6119 ft | 282 kts | 160° |
| 2026-04-22 12:51 | 49.27544 | 28.65622 | 6930 ft | 283 kts | 176° |
| 2026-04-22 12:52 | 49.25573 | 28.65870 | 7723 ft | 286 kts | 176° |
| 2026-04-22 12:52 | 49.23584 | 28.65828 | 8514 ft | 287 kts | 195° |
| 2026-04-22 12:52 | 49.21752 | 28.64713 | 9256 ft | 288 kts | 212° |
| 2026-04-22 12:52 | 49.20143 | 28.62895 | 10008 ft | 288 kts | 227° |
| 2026-04-22 12:53 | 49.18973 | 28.60414 | 10622 ft | 293 kts | 245° |
| 2026-04-22 12:53 | 49.18057 | 28.57493 | 10780 ft | 316 kts | 248° |
| 2026-04-22 12:53 | 49.17134 | 28.54328 | 10913 ft | 337 kts | 249° |
| 2026-04-22 12:53 | 49.16191 | 28.50976 | 11302 ft | 348 kts | 249° |
| 2026-04-22 12:54 | 49.15234 | 28.47536 | 11850 ft | 354 kts | 249° |
| 2026-04-22 12:54 | 49.14263 | 28.44050 | 12445 ft | 358 kts | 249° |
| 2026-04-22 12:54 | 49.13272 | 28.40525 | 13033 ft | 363 kts | 249° |
| 2026-04-22 12:54 | 49.12263 | 28.36965 | 13596 ft | 368 kts | 248° |
| 2026-04-22 12:55 | 49.11232 | 28.33358 | 14153 ft | 373 kts | 248° |
| 2026-04-22 12:55 | 49.10190 | 28.29717 | 14688 ft | 376 kts | 248° |
| 2026-04-22 12:55 | 49.09136 | 28.26044 | 15227 ft | 379 kts | 248° |
| 2026-04-22 12:55 | 49.08071 | 28.22350 | 15724 ft | 383 kts | 248° |
| 2026-04-22 12:56 | 49.06994 | 28.18624 | 16240 ft | 386 kts | 248° |
| 2026-04-22 12:56 | 49.05906 | 28.14860 | 16764 ft | 389 kts | 247° |
| 2026-04-22 12:56 | 49.04814 | 28.11073 | 17283 ft | 392 kts | 247° |
| 2026-04-22 12:56 | 49.03710 | 28.07245 | 17810 ft | 396 kts | 247° |
| 2026-04-22 12:57 | 49.02596 | 28.03392 | 18330 ft | 399 kts | 247° |
| 2026-04-22 12:57 | 49.01469 | 27.99508 | 18759 ft | 403 kts | 247° |
| 2026-04-22 12:57 | 49.00328 | 27.95581 | 19207 ft | 407 kts | 247° |
| 2026-04-22 12:57 | 48.99177 | 27.91622 | 19670 ft | 410 kts | 247° |
| 2026-04-22 12:58 | 48.98018 | 27.87641 | 20141 ft | 413 kts | 247° |
| 2026-04-22 12:58 | 48.96986 | 27.83555 | 20576 ft | 415 kts | 255° |
| 2026-04-22 12:58 | 48.96335 | 27.79270 | 21010 ft | 417 kts | 260° |
| 2026-04-22 12:58 | 48.95754 | 27.74937 | 21437 ft | 419 kts | 260° |
| 2026-04-22 12:59 | 48.95169 | 27.70575 | 21859 ft | 422 kts | 260° |
| 2026-04-22 12:59 | 48.94576 | 27.66186 | 22265 ft | 425 kts | 260° |
| 2026-04-22 12:59 | 48.93976 | 27.61761 | 22666 ft | 428 kts | 260° |
| 2026-04-22 12:59 | 48.93368 | 27.57309 | 23062 ft | 431 kts | 260° |
| 2026-04-22 13:00 | 48.92755 | 27.52837 | 23453 ft | 434 kts | 260° |
| 2026-04-22 13:00 | 48.92134 | 27.48326 | 23812 ft | 437 kts | 260° |
| 2026-04-22 13:00 | 48.91505 | 27.43792 | 24143 ft | 440 kts | 259° |
| 2026-04-22 13:00 | 48.90870 | 27.39235 | 24490 ft | 441 kts | 259° |
| 2026-04-22 13:01 | 48.90236 | 27.34656 | 24838 ft | 443 kts | 260° |
| 2026-04-22 13:01 | 48.89601 | 27.30070 | 25189 ft | 444 kts | 259° |
| 2026-04-22 13:01 | 48.88960 | 27.25472 | 25520 ft | 446 kts | 259° |
| 2026-04-22 13:01 | 48.88311 | 27.20855 | 25869 ft | 447 kts | 259° |
| 2026-04-22 13:02 | 48.87668 | 27.16289 | 26216 ft | 449 kts | 259° |
| 2026-04-22 13:02 | 48.87013 | 27.11644 | 26568 ft | 451 kts | 259° |
| 2026-04-22 13:02 | 48.86351 | 27.06974 | 26910 ft | 452 kts | 259° |
| 2026-04-22 13:02 | 48.85688 | 27.02302 | 27264 ft | 454 kts | 259° |
| 2026-04-22 13:03 | 48.85019 | 26.97604 | 27632 ft | 455 kts | 259° |
| 2026-04-22 13:03 | 48.84353 | 26.92919 | 28126 ft | 453 kts | 260° |
| 2026-04-22 13:03 | 48.83690 | 26.88253 | 28627 ft | 451 kts | 260° |
| 2026-04-22 13:03 | 48.83025 | 26.83606 | 29139 ft | 449 kts | 259° |
| 2026-04-22 13:04 | 48.82358 | 26.78993 | 29659 ft | 447 kts | 259° |
| 2026-04-22 13:04 | 48.81686 | 26.74385 | 30157 ft | 445 kts | 259° |
| 2026-04-22 13:04 | 48.81017 | 26.69799 | 30560 ft | 444 kts | 259° |
| 2026-04-22 13:04 | 48.80359 | 26.65284 | 30921 ft | 444 kts | 259° |
| 2026-04-22 13:05 | 48.79692 | 26.60715 | 31289 ft | 444 kts | 259° |
| 2026-04-22 13:05 | 48.79024 | 26.56148 | 31641 ft | 444 kts | 259° |
| 2026-04-22 13:05 | 48.78356 | 26.51576 | 32002 ft | 444 kts | 259° |
| 2026-04-22 13:05 | 48.77686 | 26.47011 | 32387 ft | 444 kts | 259° |
| 2026-04-22 13:06 | 48.77004 | 26.42383 | 32761 ft | 444 kts | 259° |
| 2026-04-22 13:06 | 48.76338 | 26.37877 | 33116 ft | 444 kts | 259° |
| 2026-04-22 13:06 | 48.75662 | 26.33318 | 33492 ft | 444 kts | 259° |
| 2026-04-22 13:06 | 48.74983 | 26.28755 | 33859 ft | 444 kts | 259° |
| 2026-04-22 13:07 | 48.74305 | 26.24203 | 34178 ft | 443 kts | 259° |
| 2026-04-22 13:07 | 48.73626 | 26.19650 | 34492 ft | 442 kts | 259° |
| 2026-04-22 13:07 | 48.72949 | 26.15117 | 34794 ft | 441 kts | 259° |
| 2026-04-22 13:07 | 48.72268 | 26.10582 | 35052 ft | 442 kts | 259° |
| 2026-04-22 13:08 | 48.71579 | 26.06044 | 35299 ft | 442 kts | 259° |
| 2026-04-22 13:08 | 48.70890 | 26.01512 | 35534 ft | 442 kts | 259° |
| 2026-04-22 13:08 | 48.70200 | 25.96974 | 35791 ft | 442 kts | 259° |
| 2026-04-22 13:08 | 48.69511 | 25.92443 | 36000 ft | 443 kts | 259° |
| 2026-04-22 13:09 | 48.68812 | 25.87874 | 36060 ft | 447 kts | 259° |
| 2026-04-22 13:09 | 48.67392 | 25.78596 | 36062 ft | 457 kts | 258° |
| 2026-04-22 13:10 | 48.65948 | 25.69208 | 36066 ft | 459 kts | 258° |
| 2026-04-22 13:10 | 48.64491 | 25.59799 | 36067 ft | 459 kts | 258° |
| 2026-04-22 13:11 | 48.63018 | 25.50424 | 36071 ft | 459 kts | 258° |
| 2026-04-22 13:11 | 48.61534 | 25.41031 | 36072 ft | 459 kts | 258° |
| 2026-04-22 13:12 | 48.60052 | 25.31630 | 36072 ft | 460 kts | 258° |
| 2026-04-22 13:12 | 48.58566 | 25.22229 | 36078 ft | 460 kts | 258° |
| 2026-04-22 13:13 | 48.57065 | 25.12837 | 36081 ft | 460 kts | 258° |
| 2026-04-22 13:13 | 48.55554 | 25.03452 | 36088 ft | 460 kts | 258° |
| 2026-04-22 13:14 | 48.54032 | 24.94054 | 36081 ft | 460 kts | 259° |
| 2026-04-22 13:14 | 48.52524 | 24.84725 | 36085 ft | 460 kts | 259° |
| 2026-04-22 13:15 | 48.50995 | 24.75359 | 36087 ft | 461 kts | 258° |
| 2026-04-22 13:15 | 48.49448 | 24.65961 | 36091 ft | 461 kts | 258° |
| 2026-04-22 13:16 | 48.47896 | 24.56584 | 36092 ft | 461 kts | 258° |
| 2026-04-22 13:16 | 48.46345 | 24.47199 | 36097 ft | 461 kts | 257° |
| 2026-04-22 13:17 | 48.44783 | 24.37832 | 36087 ft | 462 kts | 257° |
| 2026-04-22 13:17 | 48.43202 | 24.28441 | 36080 ft | 462 kts | 257° |
| 2026-04-22 13:18 | 48.41612 | 24.19049 | 36086 ft | 463 kts | 257° |
| 2026-04-22 13:18 | 48.40015 | 24.09659 | 36085 ft | 463 kts | 257° |
| 2026-04-22 13:19 | 48.38418 | 24.00279 | 36091 ft | 463 kts | 257° |
| 2026-04-22 13:19 | 48.36816 | 23.90940 | 36095 ft | 464 kts | 257° |
| 2026-04-22 13:20 | 48.35194 | 23.81556 | 36074 ft | 464 kts | 257° |
| 2026-04-22 13:20 | 48.33576 | 23.72186 | 36086 ft | 463 kts | 257° |
| 2026-04-22 13:21 | 48.31941 | 23.62817 | 36097 ft | 463 kts | 257° |
| 2026-04-22 13:21 | 48.30298 | 23.53474 | 36091 ft | 462 kts | 257° |
| 2026-04-22 13:22 | 48.28649 | 23.44134 | 36092 ft | 462 kts | 257° |
| 2026-04-22 13:22 | 48.27004 | 23.34797 | 36092 ft | 462 kts | 257° |
| 2026-04-22 13:23 | 48.25350 | 23.25473 | 36084 ft | 463 kts | 257° |
| 2026-04-22 13:23 | 48.23674 | 23.16154 | 36089 ft | 462 kts | 257° |
| 2026-04-22 13:24 | 48.21998 | 23.06839 | 36098 ft | 462 kts | 257° |
| 2026-04-22 13:24 | 48.20332 | 22.97612 | 36096 ft | 461 kts | 257° |
| 2026-04-22 13:25 | 48.18642 | 22.88336 | 36092 ft | 461 kts | 256° |
| 2026-04-22 13:25 | 48.16944 | 22.79052 | 36094 ft | 461 kts | 256° |
| 2026-04-22 13:26 | 48.15137 | 22.69829 | 36082 ft | 463 kts | 249° |
| 2026-04-22 13:26 | 48.13646 | 22.65560 | 36087 ft | 465 kts | 237° |
| 2026-04-22 13:26 | 48.11622 | 22.61789 | 36090 ft | 467 kts | 226° |
| 2026-04-22 13:26 | 48.09129 | 22.58672 | 36092 ft | 468 kts | 214° |
| 2026-04-22 13:27 | 48.06262 | 22.56380 | 36093 ft | 468 kts | 201° |
| 2026-04-22 13:27 | 48.00036 | 22.53487 | 36088 ft | 469 kts | 197° |
| 2026-04-22 13:28 | 47.93792 | 22.50683 | 36089 ft | 469 kts | 197° |
| 2026-04-22 13:28 | 47.87532 | 22.47868 | 36097 ft | 470 kts | 198° |
| 2026-04-22 13:29 | 47.81706 | 22.43629 | 36095 ft | 467 kts | 218° |
| 2026-04-22 13:29 | 47.79273 | 22.40473 | 36094 ft | 464 kts | 229° |
| 2026-04-22 13:29 | 47.77879 | 22.38051 | 36094 ft | 463 kts | 235° |
| 2026-04-22 13:30 | 47.74799 | 22.29735 | 36090 ft | 459 kts | 247° |
| 2026-04-22 13:30 | 47.72065 | 22.21152 | 36097 ft | 460 kts | 246° |
| 2026-04-22 13:31 | 47.69305 | 22.12576 | 36097 ft | 460 kts | 246° |
| 2026-04-22 13:31 | 47.66547 | 22.04007 | 36103 ft | 460 kts | 246° |
| 2026-04-22 13:32 | 47.63786 | 21.95452 | 36113 ft | 460 kts | 246° |
| 2026-04-22 13:32 | 47.61023 | 21.86896 | 36118 ft | 460 kts | 246° |
| 2026-04-22 13:33 | 47.58271 | 21.78420 | 36124 ft | 459 kts | 246° |
| 2026-04-22 13:33 | 47.55492 | 21.69894 | 36131 ft | 459 kts | 246° |
| 2026-04-22 13:34 | 47.52719 | 21.61375 | 36125 ft | 459 kts | 246° |
| 2026-04-22 13:34 | 47.49940 | 21.52884 | 36110 ft | 459 kts | 246° |
| 2026-04-22 13:35 | 47.47146 | 21.44385 | 36116 ft | 459 kts | 246° |
| 2026-04-22 13:35 | 47.44341 | 21.35898 | 36124 ft | 459 kts | 246° |
| 2026-04-22 13:36 | 47.41531 | 21.27438 | 36125 ft | 459 kts | 246° |
| 2026-04-22 13:36 | 47.38722 | 21.18978 | 36115 ft | 459 kts | 246° |
| 2026-04-22 13:37 | 47.35909 | 21.10515 | 36120 ft | 459 kts | 246° |
| 2026-04-22 13:37 | 47.33078 | 21.02061 | 36111 ft | 459 kts | 246° |
| 2026-04-22 13:38 | 47.30248 | 20.93607 | 36120 ft | 459 kts | 246° |
| 2026-04-22 13:38 | 47.26015 | 20.81021 | 36125 ft | 459 kts | 245° |
| 2026-04-22 13:39 | 47.23166 | 20.72620 | 36134 ft | 459 kts | 245° |
| 2026-04-22 13:39 | 47.20306 | 20.64207 | 36133 ft | 459 kts | 245° |
| 2026-04-22 13:40 | 47.17446 | 20.55805 | 36132 ft | 459 kts | 245° |
| 2026-04-22 13:40 | 47.14582 | 20.47428 | 36134 ft | 458 kts | 245° |
| 2026-04-22 13:41 | 47.11713 | 20.39066 | 36131 ft | 458 kts | 245° |
| 2026-04-22 13:41 | 47.08850 | 20.30716 | 36144 ft | 458 kts | 245° |
| 2026-04-22 13:42 | 47.05980 | 20.22378 | 36142 ft | 458 kts | 245° |
| 2026-04-22 13:42 | 47.03098 | 20.14043 | 36146 ft | 458 kts | 245° |
| 2026-04-22 13:43 | 47.00229 | 20.05784 | 36143 ft | 458 kts | 245° |
| 2026-04-22 13:43 | 46.97331 | 19.97460 | 36148 ft | 458 kts | 245° |
| 2026-04-22 13:44 | 46.94439 | 19.89157 | 36149 ft | 458 kts | 245° |
| 2026-04-22 13:44 | 46.91533 | 19.80859 | 36150 ft | 458 kts | 245° |
| 2026-04-22 13:45 | 46.88621 | 19.72577 | 36150 ft | 458 kts | 245° |
| 2026-04-22 13:45 | 46.85706 | 19.64305 | 36139 ft | 458 kts | 245° |
| 2026-04-22 13:46 | 46.82785 | 19.56039 | 36142 ft | 458 kts | 245° |
| 2026-04-22 13:46 | 46.79876 | 19.47841 | 36131 ft | 458 kts | 245° |
| 2026-04-22 13:47 | 46.76944 | 19.39593 | 36135 ft | 458 kts | 245° |
| 2026-04-22 13:47 | 46.74006 | 19.31357 | 36150 ft | 458 kts | 245° |
| 2026-04-22 13:48 | 46.71056 | 19.23128 | 36146 ft | 458 kts | 245° |
| 2026-04-22 13:48 | 46.68106 | 19.14914 | 36155 ft | 458 kts | 245° |
| 2026-04-22 13:49 | 46.65154 | 19.06707 | 36151 ft | 457 kts | 244° |
| 2026-04-22 13:49 | 46.62188 | 18.98500 | 36148 ft | 457 kts | 245° |
| 2026-04-22 13:50 | 46.59221 | 18.90330 | 36144 ft | 457 kts | 245° |
| 2026-04-22 13:50 | 46.56258 | 18.82172 | 36149 ft | 456 kts | 245° |
| 2026-04-22 13:51 | 46.53286 | 18.74012 | 36156 ft | 456 kts | 244° |
| 2026-04-22 13:51 | 46.50311 | 18.65869 | 36160 ft | 456 kts | 244° |
| 2026-04-22 13:52 | 46.47332 | 18.57740 | 36164 ft | 456 kts | 244° |
| 2026-04-22 13:52 | 46.44342 | 18.49623 | 36166 ft | 456 kts | 244° |
| 2026-04-22 13:53 | 46.41348 | 18.41524 | 36167 ft | 456 kts | 244° |
| 2026-04-22 13:53 | 46.38354 | 18.33431 | 36155 ft | 456 kts | 244° |
| 2026-04-22 13:54 | 46.35355 | 18.25352 | 36168 ft | 455 kts | 244° |
| 2026-04-22 13:54 | 46.32349 | 18.17282 | 36170 ft | 455 kts | 244° |
| 2026-04-22 13:55 | 46.29342 | 18.09229 | 36176 ft | 455 kts | 244° |
| 2026-04-22 13:55 | 46.26336 | 18.01197 | 36178 ft | 454 kts | 244° |
| 2026-04-22 13:56 | 46.23318 | 17.93171 | 36174 ft | 454 kts | 244° |
| 2026-04-22 13:56 | 46.20290 | 17.85158 | 36175 ft | 454 kts | 244° |
| 2026-04-22 13:57 | 46.17269 | 17.77154 | 36164 ft | 454 kts | 244° |
| 2026-04-22 13:57 | 46.14249 | 17.69167 | 36178 ft | 453 kts | 244° |
| 2026-04-22 13:58 | 46.11235 | 17.61246 | 36181 ft | 453 kts | 244° |
| 2026-04-22 13:58 | 46.08202 | 17.53288 | 36187 ft | 453 kts | 244° |
| 2026-04-22 13:59 | 46.05156 | 17.45333 | 36187 ft | 453 kts | 244° |
| 2026-04-22 13:59 | 46.01989 | 17.37494 | 36182 ft | 455 kts | 236° |
| 2026-04-22 14:00 | 45.99864 | 17.34087 | 36191 ft | 460 kts | 225° |
| 2026-04-22 14:00 | 45.97291 | 17.31327 | 36197 ft | 464 kts | 213° |
| 2026-04-22 14:00 | 45.94363 | 17.29365 | 36194 ft | 468 kts | 200° |
| 2026-04-22 14:00 | 45.91174 | 17.28302 | 36189 ft | 472 kts | 189° |
| 2026-04-22 14:01 | 45.84643 | 17.27251 | 36174 ft | 472 kts | 189° |
| 2026-04-22 14:01 | 45.78109 | 17.26140 | 36182 ft | 473 kts | 189° |
| 2026-04-22 14:02 | 45.71575 | 17.25013 | 36189 ft | 473 kts | 189° |
| 2026-04-22 14:02 | 45.65027 | 17.23901 | 36177 ft | 473 kts | 189° |
| 2026-04-22 14:03 | 45.58487 | 17.22804 | 36188 ft | 473 kts | 189° |
| 2026-04-22 14:03 | 45.51939 | 17.21721 | 36188 ft | 473 kts | 189° |
| 2026-04-22 14:04 | 45.45396 | 17.20638 | 36193 ft | 473 kts | 189° |
| 2026-04-22 14:04 | 45.38843 | 17.19547 | 36198 ft | 473 kts | 189° |
| 2026-04-22 14:05 | 45.32304 | 17.18455 | 36197 ft | 473 kts | 189° |
| 2026-04-22 14:06 | 45.22487 | 17.16823 | 36192 ft | 473 kts | 190° |
| 2026-04-22 14:06 | 45.15942 | 17.15751 | 36210 ft | 473 kts | 189° |
| 2026-04-22 14:07 | 45.09334 | 17.15442 | 36207 ft | 476 kts | 181° |
| 2026-04-22 14:07 | 45.02712 | 17.15642 | 36184 ft | 476 kts | 182° |
| 2026-04-22 14:08 | 44.96135 | 17.15832 | 36199 ft | 476 kts | 182° |
| 2026-04-22 14:08 | 44.89464 | 17.16025 | 36201 ft | 476 kts | 182° |
| 2026-04-22 14:09 | 44.82831 | 17.16215 | 36187 ft | 477 kts | 182° |
| 2026-04-22 14:09 | 44.76204 | 17.16407 | 36191 ft | 477 kts | 182° |
| 2026-04-22 14:10 | 44.69564 | 17.16605 | 36189 ft | 477 kts | 182° |
| 2026-04-22 14:10 | 44.62928 | 17.16792 | 36176 ft | 477 kts | 183° |
| 2026-04-22 14:11 | 44.56290 | 17.16975 | 36182 ft | 477 kts | 183° |
| 2026-04-22 14:11 | 44.50773 | 17.17131 | 36198 ft | 477 kts | 183° |
| 2026-04-22 14:12 | 44.44137 | 17.17319 | 36171 ft | 477 kts | 183° |
| 2026-04-22 14:12 | 44.37492 | 17.17496 | 36174 ft | 477 kts | 183° |
| 2026-04-22 14:13 | 44.30856 | 17.17682 | 36173 ft | 477 kts | 183° |
| 2026-04-22 14:13 | 44.24211 | 17.17874 | 36150 ft | 477 kts | 184° |
| 2026-04-22 14:14 | 44.17560 | 17.18066 | 36153 ft | 477 kts | 184° |
| 2026-04-22 14:14 | 44.10915 | 17.18258 | 36150 ft | 478 kts | 184° |
| 2026-04-22 14:15 | 44.04272 | 17.18441 | 36125 ft | 477 kts | 184° |
| 2026-04-22 14:15 | 43.97628 | 17.18623 | 36135 ft | 477 kts | 184° |
| 2026-04-22 14:16 | 43.91023 | 17.18803 | 36128 ft | 477 kts | 184° |
| 2026-04-22 14:16 | 43.84384 | 17.18980 | 36101 ft | 477 kts | 184° |
| 2026-04-22 14:17 | 43.77745 | 17.19170 | 36109 ft | 477 kts | 184° |
| 2026-04-22 14:17 | 43.71121 | 17.19365 | 36096 ft | 476 kts | 184° |
| 2026-04-22 14:18 | 43.64490 | 17.19544 | 36073 ft | 476 kts | 185° |
| 2026-04-22 14:18 | 43.57852 | 17.19727 | 36079 ft | 476 kts | 185° |
| 2026-04-22 14:19 | 43.51222 | 17.19906 | 36073 ft | 476 kts | 185° |
| 2026-04-22 14:19 | 43.44599 | 17.20092 | 36064 ft | 476 kts | 184° |
| 2026-04-22 14:20 | 43.34664 | 17.20423 | 36056 ft | 476 kts | 184° |
| 2026-04-22 14:20 | 43.28040 | 17.20646 | 36033 ft | 476 kts | 185° |
| 2026-04-22 14:21 | 43.18115 | 17.20957 | 36040 ft | 476 kts | 185° |
| 2026-04-22 14:22 | 43.08167 | 17.21261 | 36018 ft | 476 kts | 185° |
| 2026-04-22 14:23 | 42.98220 | 17.21573 | 36040 ft | 476 kts | 185° |
| 2026-04-22 14:23 | 42.91628 | 17.21787 | 36040 ft | 476 kts | 185° |
| 2026-04-22 14:24 | 42.85001 | 17.21995 | 36029 ft | 476 kts | 186° |
| 2026-04-22 14:24 | 42.78376 | 17.22205 | 36038 ft | 476 kts | 186° |
| 2026-04-22 14:25 | 42.71744 | 17.22410 | 36046 ft | 476 kts | 186° |
| 2026-04-22 14:25 | 42.65113 | 17.22609 | 36034 ft | 476 kts | 186° |
| 2026-04-22 14:26 | 42.58477 | 17.22819 | 36042 ft | 476 kts | 186° |
| 2026-04-22 14:26 | 42.51844 | 17.23032 | 36044 ft | 476 kts | 186° |
| 2026-04-22 14:27 | 42.45249 | 17.23231 | 36029 ft | 477 kts | 187° |
| 2026-04-22 14:27 | 42.38623 | 17.23438 | 36037 ft | 477 kts | 187° |
| 2026-04-22 14:28 | 42.31976 | 17.23641 | 36043 ft | 477 kts | 187° |
| 2026-04-22 14:28 | 42.25342 | 17.23840 | 36022 ft | 478 kts | 188° |
| 2026-04-22 14:29 | 42.18695 | 17.24046 | 36027 ft | 478 kts | 188° |
| 2026-04-22 14:29 | 42.12027 | 17.24253 | 36036 ft | 479 kts | 188° |
| 2026-04-22 14:30 | 42.05360 | 17.24453 | 36012 ft | 479 kts | 188° |
| 2026-04-22 14:30 | 41.98702 | 17.24516 | 36023 ft | 472 kts | 195° |
| 2026-04-22 14:30 | 41.95507 | 17.23854 | 36029 ft | 458 kts | 205° |
| 2026-04-22 14:31 | 41.92529 | 17.22551 | 36032 ft | 443 kts | 214° |
| 2026-04-22 14:31 | 41.89835 | 17.20688 | 35999 ft | 430 kts | 224° |
| 2026-04-22 14:31 | 41.87440 | 17.18383 | 36012 ft | 418 kts | 231° |
| 2026-04-22 14:32 | 41.83113 | 17.13246 | 36025 ft | 416 kts | 232° |
| 2026-04-22 14:32 | 41.78775 | 17.08120 | 36036 ft | 416 kts | 232° |
| 2026-04-22 14:33 | 41.74434 | 17.02988 | 36035 ft | 416 kts | 232° |
| 2026-04-22 14:33 | 41.70088 | 16.97850 | 36019 ft | 417 kts | 232° |
| 2026-04-22 14:34 | 41.65737 | 16.92720 | 36031 ft | 417 kts | 232° |
| 2026-04-22 14:34 | 41.61391 | 16.87602 | 36052 ft | 417 kts | 232° |
| 2026-04-22 14:35 | 41.57061 | 16.82507 | 36057 ft | 417 kts | 232° |
| 2026-04-22 14:35 | 41.52706 | 16.77391 | 36064 ft | 417 kts | 232° |
| 2026-04-22 14:36 | 41.48350 | 16.72288 | 36071 ft | 417 kts | 232° |
| 2026-04-22 14:36 | 41.43979 | 16.67194 | 36067 ft | 417 kts | 232° |
| 2026-04-22 14:37 | 41.39613 | 16.62102 | 36032 ft | 417 kts | 232° |
| 2026-04-22 14:37 | 41.35250 | 16.57011 | 36048 ft | 417 kts | 232° |
| 2026-04-22 14:38 | 41.30881 | 16.51931 | 36061 ft | 417 kts | 232° |
| 2026-04-22 14:38 | 41.26506 | 16.46860 | 36073 ft | 417 kts | 232° |
| 2026-04-22 14:39 | 41.22129 | 16.41787 | 36065 ft | 417 kts | 232° |
| 2026-04-22 14:39 | 41.17750 | 16.36720 | 36055 ft | 417 kts | 231° |
| 2026-04-22 14:40 | 41.11171 | 16.29144 | 36053 ft | 418 kts | 231° |
| 2026-04-22 14:40 | 41.06777 | 16.24099 | 36062 ft | 418 kts | 231° |
| 2026-04-22 14:41 | 41.02386 | 16.19052 | 36051 ft | 418 kts | 231° |
| 2026-04-22 14:41 | 40.98010 | 16.14038 | 36066 ft | 418 kts | 231° |
| 2026-04-22 14:42 | 40.93886 | 16.08737 | 36072 ft | 406 kts | 240° |
| 2026-04-22 14:42 | 40.90323 | 16.02951 | 36085 ft | 406 kts | 240° |
| 2026-04-22 14:43 | 40.86749 | 15.97185 | 35342 ft | 405 kts | 239° |
| 2026-04-22 14:43 | 40.84949 | 15.94294 | 34673 ft | 407 kts | 239° |
| 2026-04-22 14:43 | 40.83149 | 15.91397 | 33997 ft | 409 kts | 240° |
| 2026-04-22 14:44 | 40.81342 | 15.88487 | 33223 ft | 411 kts | 240° |
| 2026-04-22 14:44 | 40.79517 | 15.85558 | 32470 ft | 413 kts | 239° |
| 2026-04-22 14:44 | 40.77686 | 15.82623 | 31695 ft | 415 kts | 240° |
| 2026-04-22 14:44 | 40.75851 | 15.79688 | 30923 ft | 416 kts | 239° |
| 2026-04-22 14:45 | 40.74005 | 15.76747 | 30241 ft | 415 kts | 239° |
| 2026-04-22 14:45 | 40.72168 | 15.73831 | 29627 ft | 411 kts | 239° |
| 2026-04-22 14:45 | 40.70351 | 15.70946 | 29033 ft | 406 kts | 239° |
| 2026-04-22 14:45 | 40.68574 | 15.68121 | 28377 ft | 403 kts | 239° |
| 2026-04-22 14:46 | 40.66797 | 15.65289 | 27760 ft | 400 kts | 239° |
| 2026-04-22 14:46 | 40.65029 | 15.62475 | 27169 ft | 397 kts | 239° |
| 2026-04-22 14:46 | 40.63274 | 15.59683 | 26571 ft | 393 kts | 239° |
| 2026-04-22 14:46 | 40.61538 | 15.56921 | 26008 ft | 390 kts | 238° |
| 2026-04-22 14:47 | 40.59810 | 15.54178 | 25470 ft | 386 kts | 238° |
| 2026-04-22 14:47 | 40.58101 | 15.51469 | 24915 ft | 383 kts | 238° |
| 2026-04-22 14:47 | 40.56409 | 15.48784 | 24377 ft | 380 kts | 238° |
| 2026-04-22 14:47 | 40.54728 | 15.46116 | 23858 ft | 377 kts | 238° |
| 2026-04-22 14:48 | 40.53059 | 15.43472 | 23301 ft | 374 kts | 238° |
| 2026-04-22 14:48 | 40.51400 | 15.40848 | 22637 ft | 371 kts | 238° |
| 2026-04-22 14:48 | 40.49755 | 15.38246 | 22061 ft | 369 kts | 238° |
| 2026-04-22 14:48 | 40.48112 | 15.35652 | 21484 ft | 367 kts | 238° |
| 2026-04-22 14:49 | 40.46483 | 15.33086 | 20954 ft | 365 kts | 238° |
| 2026-04-22 14:49 | 40.44857 | 15.30528 | 20418 ft | 364 kts | 238° |
| 2026-04-22 14:49 | 40.43243 | 15.27984 | 19880 ft | 362 kts | 238° |
| 2026-04-22 14:49 | 40.41649 | 15.25473 | 19372 ft | 360 kts | 238° |
| 2026-04-22 14:50 | 40.40046 | 15.22957 | 18876 ft | 358 kts | 238° |
| 2026-04-22 14:50 | 40.38452 | 15.20461 | 18357 ft | 356 kts | 238° |
| 2026-04-22 14:50 | 40.36866 | 15.17976 | 17786 ft | 355 kts | 238° |
| 2026-04-22 14:50 | 40.35289 | 15.15503 | 17247 ft | 352 kts | 238° |
| 2026-04-22 14:51 | 40.33724 | 15.13049 | 16631 ft | 350 kts | 237° |
| 2026-04-22 14:51 | 40.32170 | 15.10615 | 16110 ft | 347 kts | 237° |
| 2026-04-22 14:51 | 40.30622 | 15.08193 | 15543 ft | 346 kts | 237° |
| 2026-04-22 14:51 | 40.29080 | 15.05781 | 15060 ft | 344 kts | 237° |
| 2026-04-22 14:52 | 40.27544 | 15.03387 | 14581 ft | 342 kts | 237° |
| 2026-04-22 14:52 | 40.26040 | 15.01040 | 14104 ft | 340 kts | 237° |
| 2026-04-22 14:52 | 40.24508 | 14.98649 | 13575 ft | 337 kts | 237° |
| 2026-04-22 14:52 | 40.23019 | 14.96329 | 12996 ft | 336 kts | 236° |
| 2026-04-22 14:53 | 40.21521 | 14.93999 | 12466 ft | 334 kts | 236° |
| 2026-04-22 14:53 | 40.20032 | 14.91683 | 11931 ft | 332 kts | 236° |
| 2026-04-22 14:53 | 40.18549 | 14.89373 | 11414 ft | 330 kts | 237° |
| 2026-04-22 14:53 | 40.17367 | 14.86876 | 10913 ft | 317 kts | 255° |
| 2026-04-22 14:54 | 40.16975 | 14.84119 | 10412 ft | 306 kts | 274° |
| 2026-04-22 14:54 | 40.17147 | 14.82304 | 10074 ft | 302 kts | 287° |
| 2026-04-22 14:54 | 40.18016 | 14.79865 | 9849 ft | 291 kts | 306° |
| 2026-04-22 14:54 | 40.19388 | 14.77994 | 9720 ft | 280 kts | 317° |
| 2026-04-22 14:55 | 40.20834 | 14.76353 | 9586 ft | 270 kts | 317° |
| 2026-04-22 14:55 | 40.22224 | 14.74774 | 9449 ft | 260 kts | 317° |
| 2026-04-22 14:55 | 40.23575 | 14.73236 | 9222 ft | 255 kts | 317° |
| 2026-04-22 14:55 | 40.24906 | 14.71720 | 8890 ft | 253 kts | 317° |
| 2026-04-22 14:56 | 40.26233 | 14.70209 | 8553 ft | 252 kts | 317° |
| 2026-04-22 14:56 | 40.27557 | 14.68700 | 8202 ft | 252 kts | 317° |
| 2026-04-22 14:56 | 40.28879 | 14.67192 | 7862 ft | 252 kts | 317° |
| 2026-04-22 14:56 | 40.30201 | 14.65683 | 7513 ft | 252 kts | 318° |
| 2026-04-22 14:57 | 40.31524 | 14.64172 | 7198 ft | 252 kts | 318° |
| 2026-04-22 14:57 | 40.32846 | 14.62665 | 6864 ft | 252 kts | 318° |
| 2026-04-22 14:57 | 40.34156 | 14.61174 | 6697 ft | 245 kts | 318° |
| 2026-04-22 14:57 | 40.35401 | 14.59754 | 6564 ft | 228 kts | 318° |
| 2026-04-22 14:58 | 40.36563 | 14.58448 | 6397 ft | 213 kts | 322° |
| 2026-04-22 14:58 | 40.37904 | 14.57682 | 6123 ft | 213 kts | 348° |
| 2026-04-22 14:58 | 40.39382 | 14.57848 | 5826 ft | 219 kts | 17° |
| 2026-04-22 14:58 | 40.40697 | 14.58853 | 5515 ft | 223 kts | 30° |
| 2026-04-22 14:59 | 40.41979 | 14.60004 | 5208 ft | 223 kts | 30° |
| 2026-04-22 14:59 | 40.43356 | 14.60913 | 4900 ft | 221 kts | 22° |
| 2026-04-22 14:59 | 40.44583 | 14.62132 | 4611 ft | 224 kts | 48° |
| 2026-04-22 14:59 | 40.45561 | 14.63721 | 4307 ft | 224 kts | 49° |
| 2026-04-22 15:00 | 40.46525 | 14.65317 | 3971 ft | 220 kts | 49° |
| 2026-04-22 15:00 | 40.47473 | 14.66888 | 3640 ft | 218 kts | 49° |
| 2026-04-22 15:00 | 40.48397 | 14.68416 | 3393 ft | 215 kts | 50° |
| 2026-04-22 15:00 | 40.49321 | 14.69949 | 3084 ft | 212 kts | 50° |
| 2026-04-22 15:01 | 40.50227 | 14.71456 | 2675 ft | 210 kts | 51° |
| 2026-04-22 15:01 | 40.51123 | 14.72945 | 2467 ft | 206 kts | 50° |
| 2026-04-22 15:01 | 40.52006 | 14.74413 | 2272 ft | 201 kts | 51° |
| 2026-04-22 15:01 | 40.52861 | 14.75837 | 2105 ft | 195 kts | 51° |
| 2026-04-22 15:02 | 40.53687 | 14.77210 | 2027 ft | 189 kts | 51° |
| 2026-04-22 15:02 | 40.54502 | 14.78563 | 2031 ft | 189 kts | 51° |
| 2026-04-22 15:02 | 40.55319 | 14.79917 | 2034 ft | 189 kts | 51° |
| 2026-04-22 15:02 | 40.56138 | 14.81296 | 1987 ft | 192 kts | 51° |
| 2026-04-22 15:03 | 40.56963 | 14.82709 | 1524 ft | 199 kts | 51° |
| 2026-04-22 15:03 | 40.57780 | 14.84128 | 1229 ft | 189 kts | 52° |
| 2026-04-22 15:03 | 40.58552 | 14.85488 | 911 ft | 182 kts | 52° |
| 2026-04-22 15:03 | 40.59264 | 14.86752 | 783 ft | 162 kts | 52° |
| 2026-04-22 15:04 | 40.59959 | 14.87886 | 580 ft | 156 kts | 49° |
| 2026-04-22 15:04 | 40.60651 | 14.88919 | 330 ft | 148 kts | 52° |
| 2026-04-22 15:04 | 40.61251 | 14.89966 | 163 ft | 141 kts | 51° |
| 2026-04-22 15:04 | 40.61819 | 14.90965 | 110 ft | 117 kts | 53° |
| 2026-04-22 15:05 | 40.62072 | 14.91402 | 120 ft | 33 kts | 52° |
| 2026-04-22 15:05 | 40.62169 | 14.91566 | 126 ft | 18 kts | 52° |
| 2026-04-22 15:05 | 40.62220 | 14.91633 | 131 ft | 3 kts | 326° |
| 2026-04-22 15:05 | 40.62205 | 14.91612 | 127 ft | 5 kts | 227° |
| 2026-04-22 15:06 | 40.62166 | 14.91549 | 125 ft | 12 kts | 232° |
| 2026-04-22 15:06 | 40.62100 | 14.91434 | 123 ft | 19 kts | 234° |
| 2026-04-22 15:06 | 40.62039 | 14.91305 | 115 ft | 10 kts | 243° |
| 2026-04-22 15:06 | 40.62021 | 14.91290 | 117 ft | 1 kts | 111° |
| 2026-04-22 15:07 | 40.62025 | 14.91297 | 117 ft | 1 kts | 68° |
| 2026-04-22 15:07 | 40.62034 | 14.91315 | 116 ft | 4 kts | 56° |
| 2026-04-22 15:07 | 40.62057 | 14.91358 | 119 ft | 7 kts | 53° |
| 2026-04-22 15:07 | 40.62090 | 14.91415 | 121 ft | 9 kts | 52° |
| 2026-04-22 15:08 | 40.62132 | 14.91484 | 124 ft | 11 kts | 52° |
| 2026-04-22 15:08 | 40.62182 | 14.91570 | 128 ft | 13 kts | 53° |
| 2026-04-22 15:08 | 40.62240 | 14.91673 | 133 ft | 14 kts | 54° |
| 2026-04-22 15:08 | 40.62289 | 14.91769 | 137 ft | 11 kts | 69° |
| 2026-04-22 15:09 | 40.62253 | 14.91844 | 137 ft | 6 kts | 144° |
| 2026-04-22 15:09 | 40.62210 | 14.91884 | 136 ft | 9 kts | 144° |
| 2026-04-22 15:09 | 40.62163 | 14.91957 | 136 ft | 12 kts | 120° |
| 2026-04-22 15:09 | 40.62147 | 14.92047 | 137 ft | 5 kts | 97° |
| 2026-04-22 15:10 | 40.62146 | 14.92064 | 136 ft | 0 kts | 97° |